TimeMST,TemperatureF,Dew PointF,Humidity,Sea Level PressureIn,VisibilityMPH,Wind Direction,Wind SpeedMPH,Gust SpeedMPH,PrecipitationIn,Events,Conditions,WindDirDegrees,DateUTC
12:54 AM,53.1,21.9,30,30.02,10.0,South,5.8,-,N/A,,Clear,190,2013-03-14 07:54:00
1:54 AM,50.0,21.0,32,30.02,10.0,ENE,3.5,-,N/A,,Clear,70,2013-03-14 08:54:00
2:54 AM,50.0,21.0,32,30.01,10.0,East,5.8,-,N/A,,Clear,80,2013-03-14 09:54:00
3:54 AM,48.0,21.9,36,30.01,10.0,South,3.5,-,N/A,,Clear,170,2013-03-14 10:54:00
4:54 AM,46.0,21.0,37,30.02,10.0,Calm,Calm,-,N/A,,Clear,0,2013-03-14 11:54:00
5:54 AM,45.0,21.9,40,30.05,10.0,South,3.5,-,N/A,,Clear,190,2013-03-14 12:54:00
6:54 AM,48.0,19.9,33,30.06,10.0,ENE,5.8,-,N/A,,Clear,60,2013-03-14 13:54:00
7:54 AM,55.9,23.0,28,30.07,10.0,SSE,3.5,-,N/A,,Clear,150,2013-03-14 14:54:00
8:54 AM,66.9,23.0,19,30.06,10.0,Variable,3.5,-,N/A,,Clear,0,2013-03-14 15:54:00
10:54 AM,80.1,9.0,7,30.04,10.0,SSW,4.6,-,N/A,,Clear,210,2013-03-14 17:54:00
11:54 AM,84.0,5.0,5,30.02,10.0,Variable,5.8,-,N/A,,Clear,0,2013-03-14 18:54:00
12:54 PM,86.0,10.9,6,29.99,10.0,NNW,8.1,-,N/A,,Clear,340,2013-03-14 19:54:00
1:54 PM,84.9,8.1,5,29.97,10.0,Calm,Calm,-,N/A,,Clear,0,2013-03-14 20:54:00
2:54 PM,89.1,8.1,5,29.95,10.0,NNE,8.1,-,N/A,,Clear,30,2013-03-14 21:54:00
3:54 PM,87.1,5.0,4,29.94,10.0,Variable,5.8,-,N/A,,Clear,0,2013-03-14 22:54:00
4:54 PM,87.1,3.9,4,29.94,10.0,ENE,6.9,-,N/A,,Clear,60,2013-03-14 23:54:00
5:54 PM,82.9,12.0,7,29.96,10.0,NW,5.8,-,N/A,,Clear,310,2013-03-15 00:54:00
6:54 PM,77.0,12.0,8,29.97,10.0,North,6.9,-,N/A,,Clear,360,2013-03-15 01:54:00
7:54 PM,71.1,12.9,11,29.97,10.0,NE,11.5,-,N/A,,Clear,40,2013-03-15 02:54:00
8:54 PM,68.0,12.0,11,29.96,10.0,Calm,Calm,-,N/A,,Clear,0,2013-03-15 03:54:00
9:54 PM,59.0,17.1,20,29.99,10.0,Calm,Calm,-,N/A,,Clear,0,2013-03-15 04:54:00
10:54 PM,57.9,15.1,19,29.99,10.0,Calm,Calm,-,N/A,,Clear,0,2013-03-15 05:54:00
11:54 PM,53.1,18.0,25,29.99,10.0,East,5.8,-,N/A,,Clear,90,2013-03-15 06:54:00